createdAt,value
2018-04-18T00:01:04.934Z,9.70
2018-04-18T00:03:33.522Z,9.60
2018-04-18T00:06:02.136Z,9.60
2018-04-18T00:08:31.485Z,9.50
2018-04-18T00:11:00.123Z,9.50
2018-04-18T00:13:29.496Z,9.30
2018-04-18T00:15:58.080Z,9.30
2018-04-18T00:18:26.669Z,9.40
2018-04-18T00:20:55.238Z,9.40
2018-04-18T00:23:23.874Z,9.30
2018-04-18T00:25:52.413Z,9.30
2018-04-18T00:28:20.991Z,9.20
2018-04-18T00:30:49.573Z,9.10
2018-04-18T00:33:18.172Z,9.20
2018-04-18T00:35:47.578Z,9.00
2018-04-18T00:38:16.147Z,9.10
2018-04-18T00:40:44.728Z,9.10
2018-04-18T00:43:13.302Z,9.00
2018-04-18T00:45:41.873Z,9.00
2018-04-18T00:48:10.552Z,8.90
2018-04-18T00:50:39.177Z,8.90
2018-04-18T00:53:07.736Z,8.80
2018-04-18T00:55:36.336Z,8.80
2018-04-18T00:58:04.926Z,8.80
2018-04-18T01:00:33.501Z,8.80
2018-04-18T01:03:02.118Z,8.80
2018-04-18T01:05:30.788Z,8.80
2018-04-18T01:08:00.149Z,8.70
2018-04-18T01:10:28.719Z,8.70
2018-04-18T01:12:59.265Z,8.70
2018-04-18T01:15:27.866Z,8.60
2018-04-18T01:17:56.449Z,8.60
2018-04-18T01:20:25.035Z,8.60
2018-04-18T01:22:53.649Z,8.60
2018-04-18T01:25:23.026Z,8.50
2018-04-18T01:27:51.614Z,8.50
2018-04-18T01:30:20.225Z,8.50
2018-04-18T01:32:49.609Z,8.50
2018-04-18T01:35:18.193Z,8.50
2018-04-18T01:37:47.562Z,8.40
2018-04-18T01:40:16.145Z,8.40
2018-04-18T01:42:44.737Z,8.30
2018-04-18T01:45:13.081Z,8.20
2018-04-18T01:47:41.661Z,8.20
2018-04-18T01:50:10.206Z,8.10
2018-04-18T01:52:39.351Z,8.10
2018-04-18T01:55:07.909Z,8.10
2018-04-18T01:57:37.288Z,8.20
2018-04-18T02:00:06.627Z,8.10
2018-04-18T02:02:35.215Z,8.10
2018-04-18T02:05:03.817Z,8.10
2018-04-18T02:07:32.446Z,8.10
2018-04-18T02:10:01.789Z,8.00
2018-04-18T02:12:30.408Z,8.00
2018-04-18T02:14:59.007Z,8.00
2018-04-18T02:17:27.582Z,8.00
2018-04-18T02:19:56.165Z,8.10
2018-04-18T02:22:24.742Z,8.00
2018-04-18T02:24:53.318Z,8.00
2018-04-18T02:27:21.902Z,8.00
2018-04-18T02:29:50.473Z,8.00
2018-04-18T02:32:18.878Z,8.00
2018-04-18T02:34:47.425Z,7.90
2018-04-18T02:37:15.822Z,8.00
2018-04-18T02:39:44.427Z,7.90
2018-04-18T02:42:13.243Z,7.90
2018-04-18T02:44:41.809Z,7.90
2018-04-18T02:47:11.196Z,7.80
2018-04-18T02:49:39.675Z,7.80
2018-04-18T02:52:08.225Z,7.80
2018-04-18T02:54:36.604Z,7.80
2018-04-18T02:57:05.002Z,7.90
2018-04-18T02:59:33.365Z,7.80
2018-04-18T03:02:01.992Z,7.90
2018-04-18T03:04:30.736Z,7.80
2018-04-18T03:06:59.339Z,7.70
2018-04-18T03:09:27.906Z,7.80
2018-04-18T03:11:56.486Z,7.70
2018-04-18T03:14:25.226Z,7.70
2018-04-18T03:16:54.516Z,7.70
2018-04-18T03:19:23.843Z,7.70
2018-04-18T03:21:52.441Z,7.60
2018-04-18T03:24:20.996Z,7.70
2018-04-18T03:26:49.614Z,7.60
2018-04-18T03:29:18.212Z,7.60
2018-04-18T03:31:46.854Z,7.50
2018-04-18T03:34:15.613Z,7.50
2018-04-18T03:36:44.205Z,7.40
2018-04-18T03:39:13.566Z,7.40
2018-04-18T03:41:42.188Z,7.40
2018-04-18T03:44:10.749Z,7.40
2018-04-18T03:46:39.321Z,7.40
2018-04-18T03:49:07.888Z,7.40
2018-04-18T03:51:36.421Z,7.40
2018-04-18T03:54:05.765Z,7.40
2018-04-18T03:56:34.386Z,7.40
2018-04-18T03:59:02.950Z,7.30
2018-04-18T04:01:31.545Z,7.30
2018-04-18T04:04:00.121Z,7.20
2018-04-18T04:06:28.718Z,7.20
2018-04-18T04:08:57.272Z,7.20
2018-04-18T04:11:25.860Z,7.20
2018-04-18T04:13:54.250Z,7.20
2018-04-18T04:16:33.997Z,7.20
2018-04-18T04:19:13.729Z,7.10
2018-04-18T04:21:53.646Z,7.00
2018-04-18T04:27:24.401Z,7.00
2018-04-18T04:29:52.999Z,7.00
2018-04-18T04:32:21.567Z,7.00
2018-04-18T04:34:49.890Z,7.00
2018-04-18T04:37:18.473Z,7.00
2018-04-18T04:39:46.998Z,7.10
2018-04-18T04:42:15.565Z,7.10
2018-04-18T04:44:44.124Z,7.10
2018-04-18T04:47:12.644Z,7.10
2018-04-18T04:49:41.194Z,7.10
2018-04-18T04:52:09.767Z,7.10
2018-04-18T04:54:39.090Z,7.20
2018-04-18T04:57:07.679Z,7.20
2018-04-18T04:59:36.228Z,7.20
2018-04-18T05:02:04.785Z,7.10
2018-04-18T05:04:33.310Z,7.10
2018-04-18T05:07:01.662Z,7.10
2018-04-18T05:09:30.186Z,7.10
2018-04-18T05:11:58.741Z,7.10
2018-04-18T05:14:27.307Z,7.20
2018-04-18T05:16:55.826Z,7.20
2018-04-18T05:19:25.149Z,7.30
2018-04-18T05:21:53.697Z,7.30
2018-04-18T05:24:22.060Z,7.40
2018-04-18T05:26:50.597Z,7.40
2018-04-18T05:29:19.139Z,7.60
2018-04-18T05:31:47.656Z,7.80
2018-04-18T05:34:17.000Z,8.20
2018-04-18T05:36:45.534Z,8.20
2018-04-18T05:39:14.113Z,8.30
2018-04-18T05:41:42.671Z,8.40
2018-04-18T05:44:11.216Z,8.50
2018-04-18T05:46:39.778Z,8.70
2018-04-18T05:49:08.298Z,8.80
2018-04-18T05:51:36.857Z,9.00
2018-04-18T05:54:05.992Z,9.20
2018-04-18T05:56:34.568Z,9.10
2018-04-18T05:59:02.910Z,9.30
2018-04-18T06:01:31.440Z,9.40
2018-04-18T06:04:00.000Z,9.50
2018-04-18T06:06:29.314Z,9.60
2018-04-18T06:08:57.861Z,9.60
2018-04-18T06:11:28.380Z,9.60
2018-04-18T06:13:56.950Z,9.70
2018-04-18T06:16:26.122Z,9.80
2018-04-18T06:18:54.720Z,10.00
2018-04-18T06:21:23.317Z,10.10
2018-04-18T06:23:51.839Z,10.20
2018-04-18T06:26:20.426Z,10.40
2018-04-18T06:28:49.017Z,10.50
2018-04-18T06:31:18.346Z,10.70
2018-04-18T06:33:46.884Z,10.70
2018-04-18T06:36:15.431Z,10.80
2018-04-18T06:38:43.990Z,11.10
2018-04-18T06:41:13.693Z,11.30
2018-04-18T06:43:42.270Z,11.40
2018-04-18T06:46:10.798Z,11.50
2018-04-18T06:48:39.429Z,11.60
2018-04-18T06:51:07.964Z,11.70
2018-04-18T06:53:36.550Z,11.90
2018-04-18T06:56:05.210Z,12.20
2018-04-18T06:58:33.852Z,12.30
2018-04-18T07:01:02.495Z,12.30
2018-04-18T07:03:31.112Z,12.40
2018-04-18T07:05:59.741Z,12.50
2018-04-18T07:08:28.571Z,12.60
2018-04-18T07:10:57.216Z,12.70
2018-04-18T07:13:25.830Z,12.80
2018-04-18T07:15:55.247Z,13.00
2018-04-18T07:18:23.890Z,13.00
2018-04-18T07:20:52.367Z,13.10
2018-04-18T07:23:20.974Z,13.20
2018-04-18T07:25:49.596Z,13.30
2018-04-18T07:28:18.232Z,13.40
2018-04-18T07:30:46.854Z,13.40
2018-04-18T07:33:16.257Z,13.60
2018-04-18T07:35:45.611Z,13.80
2018-04-18T07:38:14.254Z,13.70
2018-04-18T07:40:43.666Z,14.00
2018-04-18T07:43:12.342Z,14.00
2018-04-18T07:45:41.015Z,14.10
2018-04-18T07:48:09.617Z,14.30
2018-04-18T07:50:38.291Z,14.40
2018-04-18T07:53:06.972Z,14.50
2018-04-18T07:55:35.715Z,14.70
2018-04-18T07:58:04.216Z,14.80
2018-04-18T08:00:33.059Z,14.90
2018-04-18T08:03:02.461Z,15.20
2018-04-18T08:05:31.859Z,15.40
2018-04-18T08:08:00.748Z,15.40
2018-04-18T08:10:29.423Z,15.50
2018-04-18T08:12:57.867Z,15.60
2018-04-18T08:15:27.059Z,15.70
2018-04-18T08:17:55.804Z,15.90
2018-04-18T08:20:24.425Z,16.10
2018-04-18T08:22:53.023Z,16.20
2018-04-18T08:25:21.652Z,16.30
2018-04-18T08:27:56.495Z,16.40
2018-04-18T08:30:25.171Z,16.50
2018-04-18T08:32:53.801Z,16.70
2018-04-18T08:35:23.267Z,17.10
2018-04-18T08:37:54.162Z,17.00
2018-04-18T08:40:22.826Z,17.30
2018-04-18T08:42:52.008Z,17.90
2018-04-18T08:45:20.612Z,17.90
2018-04-18T08:47:49.458Z,18.10
2018-04-18T08:50:18.083Z,18.50
2018-04-18T08:52:47.311Z,19.10
2018-04-18T08:55:15.951Z,19.10
2018-04-18T08:57:44.588Z,19.30
2018-04-18T09:00:13.066Z,19.50
2018-04-18T09:02:41.617Z,19.70
2018-04-18T09:05:10.253Z,20.00
2018-04-18T09:07:38.910Z,20.40
2018-04-18T09:10:08.008Z,20.70
2018-04-18T09:12:37.549Z,20.90
2018-04-18T09:15:06.249Z,20.90
2018-04-18T09:17:34.855Z,21.10
2018-04-18T09:20:03.507Z,21.50
2018-04-18T09:22:32.127Z,21.60
2018-04-18T09:25:00.784Z,21.70
2018-04-18T09:27:29.366Z,21.80
2018-04-18T09:29:58.007Z,22.10
2018-04-18T09:32:26.901Z,22.30
2018-04-18T09:34:55.526Z,22.50
2018-04-18T09:37:24.739Z,22.70
2018-04-18T09:39:53.338Z,22.70
2018-04-18T09:42:21.974Z,22.80
2018-04-18T09:44:50.270Z,23.00
2018-04-18T09:47:18.895Z,23.20
2018-04-18T09:49:47.655Z,23.10
2018-04-18T09:52:16.362Z,23.30
2018-04-18T09:54:45.001Z,23.40
2018-04-18T09:57:13.589Z,23.50
2018-04-18T09:59:42.216Z,23.50
2018-04-18T10:02:16.257Z,23.60
2018-04-18T10:04:44.730Z,23.70
2018-04-18T10:07:13.397Z,23.90
2018-04-18T10:09:42.025Z,24.10
2018-04-18T10:12:10.635Z,24.10
2018-04-18T10:14:39.260Z,24.50
2018-04-18T10:17:07.928Z,24.90
2018-04-18T10:19:37.314Z,25.10
2018-04-18T10:22:05.959Z,25.10
2018-04-18T10:24:35.310Z,25.40
2018-04-18T10:27:03.941Z,25.30
2018-04-18T10:29:32.580Z,25.40
2018-04-18T10:32:01.271Z,26.00
2018-04-18T10:34:29.962Z,26.00
2018-04-18T10:36:58.594Z,26.20
2018-04-18T10:39:27.064Z,26.40
2018-04-18T10:41:55.716Z,26.80
2018-04-18T10:44:24.352Z,27.20
2018-04-18T10:46:52.943Z,27.80
2018-04-18T10:49:23.366Z,27.90
2018-04-18T10:51:52.667Z,28.30
2018-04-18T10:54:21.133Z,29.10
2018-04-18T10:56:49.772Z,29.60
2018-04-18T10:59:18.433Z,30.10
2018-04-18T11:01:47.194Z,30.20
2018-04-18T11:04:15.812Z,30.40
2018-04-18T11:06:44.559Z,30.50
2018-04-18T11:09:13.206Z,31.00
2018-04-18T11:11:41.801Z,30.90
2018-04-18T11:14:10.428Z,30.50
2018-04-18T11:16:50.475Z,30.80
2018-04-18T11:19:19.135Z,31.30
2018-04-18T11:21:51.444Z,31.90
2018-04-18T11:24:21.996Z,31.40
2018-04-18T11:31:50.926Z,33.20
2018-04-18T11:59:15.919Z,35.00
2018-04-18T12:01:45.320Z,35.90
2018-04-18T12:04:23.177Z,35.90
2018-04-18T12:06:52.184Z,36.50
2018-04-18T12:09:32.070Z,35.90
2018-04-18T12:12:01.127Z,37.00
2018-04-18T12:14:30.636Z,37.00
2018-04-18T12:17:00.089Z,36.80
2018-04-18T12:21:59.652Z,36.70
2018-04-18T12:24:29.027Z,37.80
2018-04-18T12:26:58.638Z,37.70
2018-04-18T12:29:28.213Z,37.00
2018-04-18T12:31:57.408Z,36.10
2018-04-18T12:34:26.600Z,36.40
2018-04-18T12:36:55.213Z,36.60
2018-04-18T12:39:27.843Z,37.20
2018-04-18T12:42:05.702Z,37.50
2018-04-18T12:44:35.525Z,37.50
2018-04-18T12:47:15.547Z,37.30
2018-04-18T12:49:45.185Z,38.00
2018-04-18T12:52:14.784Z,37.50
2018-04-18T12:54:51.039Z,37.50
2018-04-18T12:57:21.699Z,38.90
2018-04-18T12:59:51.170Z,38.90
2018-04-18T13:02:19.816Z,39.50
2018-04-18T13:04:57.915Z,40.30
2018-04-18T13:09:56.990Z,39.20
2018-04-18T13:12:26.278Z,40.10
2018-04-18T13:14:55.040Z,39.90
2018-04-18T13:17:26.597Z,39.70
2018-04-18T13:19:55.589Z,39.60
2018-04-18T13:22:24.606Z,36.80
2018-04-18T13:24:59.328Z,38.40
2018-04-18T13:27:28.512Z,38.40
2018-04-18T13:29:57.562Z,39.00
2018-04-18T13:34:57.986Z,40.60
2018-04-18T13:37:28.493Z,40.50
2018-04-18T13:39:58.248Z,40.80
2018-04-18T13:42:28.366Z,40.80
2018-04-18T13:44:58.945Z,39.90
2018-04-18T13:47:31.413Z,40.40
2018-04-18T14:05:12.228Z,39.00
2018-04-18T14:07:42.604Z,38.80
2018-04-18T14:10:11.976Z,38.80
2018-04-18T14:12:41.900Z,39.10
2018-04-18T14:15:11.255Z,39.00
2018-04-18T14:17:40.585Z,38.60
2018-04-18T14:20:11.099Z,38.20
2018-04-18T14:22:39.714Z,39.20
2018-04-18T14:25:08.403Z,39.30
2018-04-18T14:27:37.525Z,40.20
2018-04-18T14:30:06.746Z,40.90
2018-04-18T14:32:36.258Z,40.90
2018-04-18T14:35:05.300Z,39.60
2018-04-18T14:37:34.849Z,40.10
2018-04-18T14:40:03.565Z,40.30
2018-04-18T14:42:32.827Z,41.10
2018-04-18T14:45:03.250Z,40.00
2018-04-18T14:47:32.540Z,39.90
2018-04-18T14:50:01.680Z,38.60
2018-04-18T14:52:30.321Z,39.00
2018-04-18T14:54:59.174Z,37.60
2018-04-18T14:57:28.709Z,39.10
2018-04-18T15:00:02.109Z,39.00
2018-04-18T15:02:32.749Z,38.30
2018-04-18T15:05:01.609Z,36.70
2018-04-18T15:07:30.791Z,36.50
2018-04-18T15:10:01.857Z,36.60
2018-04-18T15:12:31.622Z,37.60
2018-04-18T15:15:00.582Z,37.60
2018-04-18T15:17:29.207Z,36.00
2018-04-18T15:19:57.818Z,33.10
2018-04-18T15:22:26.444Z,31.60
2018-04-18T15:24:55.129Z,30.40
2018-04-18T15:27:23.809Z,29.90
2018-04-18T15:29:52.674Z,29.20
2018-04-18T15:32:21.295Z,28.60
2018-04-18T15:34:49.906Z,28.10
2018-04-18T15:37:18.570Z,27.80
2018-04-18T15:39:49.267Z,27.70
2018-04-18T15:42:17.881Z,27.70
2018-04-18T15:44:47.287Z,27.30
2018-04-18T15:47:16.722Z,27.20
2018-04-18T15:49:45.343Z,27.20
2018-04-18T15:52:13.944Z,27.10
2018-04-18T15:54:42.563Z,26.90
2018-04-18T15:57:11.173Z,26.70
2018-04-18T15:59:39.791Z,26.60
2018-04-18T16:02:08.427Z,26.60
2018-04-18T16:04:37.089Z,26.60
2018-04-18T16:07:05.695Z,26.60
2018-04-18T16:09:34.329Z,26.50
2018-04-18T16:12:02.953Z,26.40
2018-04-18T16:14:31.398Z,26.40
2018-04-18T16:17:00.086Z,26.40
2018-04-18T16:19:28.728Z,26.20
2018-04-18T16:21:57.426Z,26.10
2018-04-18T16:24:26.077Z,26.00
2018-04-18T16:26:54.740Z,25.90
2018-04-18T16:29:34.620Z,25.90
2018-04-18T16:32:04.011Z,25.80
2018-04-18T16:34:32.671Z,25.70
2018-04-18T16:37:01.299Z,25.70
2018-04-18T16:39:29.968Z,25.60
2018-04-18T16:41:58.420Z,25.50
2018-04-18T16:44:27.066Z,25.50
2018-04-18T16:46:56.473Z,25.30
2018-04-18T16:49:25.423Z,25.20
2018-04-18T16:51:54.139Z,25.20
2018-04-18T16:54:22.774Z,25.20
2018-04-18T16:56:51.429Z,25.10
2018-04-18T16:59:20.773Z,25.00
2018-04-18T17:01:49.422Z,24.90
2018-04-18T17:04:18.100Z,24.90
2018-04-18T17:06:46.811Z,24.80
2018-04-18T17:09:15.668Z,24.70
2018-04-18T17:11:44.454Z,24.70
2018-04-18T17:14:13.117Z,24.60
2018-04-18T17:16:41.700Z,24.50
2018-04-18T17:19:10.331Z,24.40
2018-04-18T17:21:38.956Z,24.20
2018-04-18T17:24:07.595Z,24.10
2018-04-18T17:26:36.198Z,24.00
2018-04-18T17:29:04.863Z,23.90
2018-04-18T17:31:33.363Z,23.80
2018-04-18T17:34:01.990Z,23.80
2018-04-18T17:36:30.642Z,23.60
2018-04-18T17:38:59.286Z,23.40
2018-04-18T17:41:27.849Z,23.10
2018-04-18T17:43:56.499Z,22.80
2018-04-18T17:46:25.110Z,22.50
2018-04-18T17:48:54.544Z,22.00
2018-04-18T17:51:23.173Z,22.00
2018-04-18T17:53:51.856Z,21.80
2018-04-18T17:56:20.504Z,21.50
2018-04-18T17:58:49.118Z,21.30
2018-04-18T18:01:17.789Z,21.10
2018-04-18T18:03:46.396Z,20.90
2018-04-18T18:06:15.082Z,20.70
2018-04-18T18:08:43.679Z,20.40
2018-04-18T18:11:12.285Z,20.30
2018-04-18T18:13:40.886Z,20.10
2018-04-18T18:16:09.467Z,19.90
2018-04-18T18:18:38.078Z,19.80
2018-04-18T18:21:06.700Z,19.50
2018-04-18T18:23:35.361Z,19.40
2018-04-18T18:26:03.941Z,19.20
2018-04-18T18:28:32.614Z,19.10
2018-04-18T18:31:01.245Z,19.00
2018-04-18T18:33:29.828Z,19.00
2018-04-18T18:35:58.259Z,19.00
2018-04-18T18:38:26.680Z,18.80
2018-04-18T18:40:55.332Z,18.70
2018-04-18T18:43:24.019Z,18.60
2018-04-18T18:45:52.536Z,18.50
2018-04-18T18:48:21.190Z,18.40
2018-04-18T18:50:50.587Z,18.20
2018-04-18T18:53:19.201Z,18.10
2018-04-18T18:55:47.853Z,18.00
2018-04-18T18:58:16.532Z,17.90
2018-04-18T19:00:45.345Z,17.80
2018-04-18T19:03:14.719Z,17.50
2018-04-18T19:05:43.322Z,17.50
2018-04-18T19:08:12.057Z,17.40
2018-04-18T19:10:40.664Z,17.30
2018-04-18T19:13:08.993Z,17.20
2018-04-18T19:15:38.509Z,17.00
2018-04-18T19:18:07.153Z,16.90
2018-04-18T19:20:35.548Z,16.90
2018-04-18T19:23:04.166Z,16.90
2018-04-18T19:25:32.875Z,16.70
2018-04-18T19:28:01.604Z,16.60
2018-04-18T19:30:30.244Z,16.50
2018-04-18T19:32:58.844Z,16.40
2018-04-18T19:35:29.612Z,16.30
2018-04-18T19:37:58.438Z,16.20
2018-04-18T19:40:27.070Z,16.00
2018-04-18T19:42:55.513Z,16.00
2018-04-18T19:45:24.910Z,15.80
2018-04-18T19:47:54.196Z,15.80
2018-04-18T19:50:22.938Z,15.90
2018-04-18T19:52:51.634Z,15.90
2018-04-18T19:55:20.300Z,15.70
2018-04-18T19:57:48.911Z,15.70
2018-04-18T20:00:17.633Z,15.60
2018-04-18T20:02:46.436Z,15.60
2018-04-18T20:05:14.980Z,15.50
2018-04-18T20:07:43.613Z,15.40
2018-04-18T20:10:13.068Z,15.40
2018-04-18T20:12:41.750Z,15.30
2018-04-18T20:15:11.044Z,15.30
2018-04-18T20:17:39.707Z,15.30
2018-04-18T20:20:08.405Z,15.20
2018-04-18T20:22:37.092Z,15.20
2018-04-18T20:25:06.500Z,15.20
2018-04-18T20:27:35.907Z,15.10
2018-04-18T20:30:06.452Z,15.10
2018-04-18T20:32:35.170Z,15.00
2018-04-18T20:35:03.770Z,14.90
2018-04-18T20:37:32.476Z,14.80
2018-04-18T20:40:01.238Z,14.70
2018-04-18T20:42:29.875Z,14.70
2018-04-18T20:44:59.399Z,14.70
2018-04-18T20:47:28.126Z,14.60
2018-04-18T20:49:56.960Z,14.60
2018-04-18T20:52:26.648Z,14.30
2018-04-18T20:54:55.301Z,14.30
2018-04-18T20:57:24.822Z,14.30
2018-04-18T20:59:53.859Z,14.30
2018-04-18T21:02:22.498Z,14.30
2018-04-18T21:04:51.112Z,14.20
2018-04-18T21:07:19.832Z,14.00
2018-04-18T21:09:48.486Z,13.90
2018-04-18T21:12:17.101Z,13.70
2018-04-18T21:14:46.508Z,13.50
2018-04-18T21:17:16.084Z,13.50
2018-04-18T21:19:44.752Z,13.50
2018-04-18T21:22:13.389Z,13.50
2018-04-18T21:24:42.792Z,13.50
2018-04-18T21:27:11.396Z,13.50
2018-04-18T21:29:40.799Z,13.40
2018-04-18T21:32:09.382Z,13.40
2018-04-18T21:34:38.891Z,13.30
2018-04-18T21:37:07.538Z,13.30
2018-04-18T21:39:37.114Z,13.30
2018-04-18T21:42:05.787Z,13.30
2018-04-18T21:44:34.544Z,13.30
2018-04-18T21:47:03.332Z,13.30
2018-04-18T21:49:32.057Z,13.30
2018-04-18T21:52:00.711Z,13.20
2018-04-18T21:54:29.319Z,13.10
2018-04-18T21:56:58.830Z,13.00
2018-04-18T21:59:27.473Z,13.00
2018-04-18T22:01:56.107Z,12.90
2018-04-18T22:04:33.293Z,12.80
2018-04-18T22:07:02.583Z,12.90
2018-04-18T22:09:31.778Z,12.90
2018-04-18T22:12:00.428Z,12.80
2018-04-18T22:14:29.136Z,12.70
2018-04-18T22:16:57.953Z,12.70
2018-04-18T22:19:26.726Z,12.70
2018-04-18T22:21:55.330Z,12.70
2018-04-18T22:24:24.218Z,12.70
2018-04-18T22:26:59.983Z,12.70
2018-04-18T22:29:28.689Z,12.70
2018-04-18T22:31:57.390Z,12.60
2018-04-18T22:34:26.104Z,12.60
2018-04-18T22:36:54.570Z,12.50
2018-04-18T22:39:23.212Z,12.50
2018-04-18T22:41:51.873Z,12.40
2018-04-18T22:44:20.499Z,12.40
2018-04-18T22:46:49.885Z,12.30
2018-04-18T22:49:18.541Z,12.30
2018-04-18T22:51:47.166Z,12.20
2018-04-18T22:54:15.821Z,12.20
2018-04-18T22:56:44.462Z,12.10
2018-04-18T22:59:13.143Z,12.10
2018-04-18T23:01:42.563Z,12.10
2018-04-18T23:04:11.274Z,12.00
2018-04-18T23:06:39.889Z,12.10
2018-04-18T23:09:08.593Z,12.00
2018-04-18T23:11:37.033Z,12.00
2018-04-18T23:14:05.693Z,12.00
2018-04-18T23:16:34.332Z,12.00
2018-04-18T23:19:02.742Z,11.90
2018-04-18T23:21:31.176Z,11.90
2018-04-18T23:23:59.781Z,11.90
2018-04-18T23:26:28.420Z,11.90
2018-04-18T23:28:57.034Z,11.80
2018-04-18T23:31:25.687Z,11.80
2018-04-18T23:33:55.043Z,11.70
2018-04-18T23:36:23.684Z,11.70
2018-04-18T23:38:53.037Z,11.60
2018-04-18T23:41:21.638Z,11.60
2018-04-18T23:43:50.293Z,11.60
2018-04-18T23:46:18.929Z,11.50
2018-04-18T23:48:48.338Z,11.50
2018-04-18T23:51:17.724Z,11.50
2018-04-18T23:53:46.367Z,11.40
2018-04-18T23:56:14.976Z,11.40
2018-04-18T23:58:43.711Z,11.40
